createdAt,value
2018-09-05T00:00:00.304Z,1003.41
2018-09-05T00:01:00.284Z,1003.39
2018-09-05T00:02:00.270Z,1003.39
2018-09-05T00:03:00.282Z,1003.39
2018-09-05T00:04:00.236Z,1003.39
2018-09-05T00:05:00.231Z,1003.36
2018-09-05T00:06:00.204Z,1003.36
2018-09-05T00:07:00.187Z,1003.36
2018-09-05T00:08:00.204Z,1003.36
2018-09-05T00:09:00.156Z,1003.38
2018-09-05T00:10:00.136Z,1003.37
2018-09-05T00:11:00.124Z,1003.36
2018-09-05T00:12:00.104Z,1003.36
2018-09-05T00:13:00.088Z,1003.36
2018-09-05T00:14:00.074Z,1003.36
2018-09-05T00:15:00.055Z,1003.35
2018-09-05T00:16:00.040Z,1003.38
2018-09-05T00:17:00.025Z,1003.38
2018-09-05T00:18:00.001Z,1003.37
2018-09-05T00:18:59.987Z,1003.34
2018-09-05T00:19:59.985Z,1003.35
2018-09-05T00:20:59.986Z,1003.37
2018-09-05T00:21:59.946Z,1003.38
2018-09-05T00:22:59.921Z,1003.39
2018-09-05T00:23:59.914Z,1003.37
2018-09-05T00:24:59.911Z,1003.40
2018-09-05T00:25:59.870Z,1003.38
2018-09-05T00:26:59.855Z,1003.41
2018-09-05T00:27:59.837Z,1003.39
2018-09-05T00:28:59.821Z,1003.41
2018-09-05T00:29:59.804Z,1003.45
2018-09-05T00:30:59.787Z,1003.45
2018-09-05T00:31:59.777Z,1003.43
2018-09-05T00:32:59.755Z,1003.41
2018-09-05T00:33:59.737Z,1003.44
2018-09-05T00:34:59.715Z,1003.43
2018-09-05T00:35:59.710Z,1003.44
2018-09-05T00:36:59.683Z,1003.40
2018-09-05T00:37:59.688Z,1003.36
2018-09-05T00:38:59.679Z,1003.35
2018-09-05T00:39:59.642Z,1003.34
2018-09-05T00:40:59.621Z,1003.32
2018-09-05T00:41:59.607Z,1003.32
2018-09-05T00:42:59.584Z,1003.27
2018-09-05T00:43:59.564Z,1003.30
2018-09-05T00:44:59.576Z,1003.32
2018-09-05T00:45:59.533Z,1003.28
2018-09-05T00:46:59.522Z,1003.33
2018-09-05T00:47:59.500Z,1003.28
2018-09-05T00:48:59.480Z,1003.32
2018-09-05T00:49:59.468Z,1003.28
2018-09-05T00:50:59.458Z,1003.30
2018-09-05T00:51:59.438Z,1003.28
2018-09-05T00:52:59.418Z,1003.28
2018-09-05T00:53:59.424Z,1003.28
2018-09-05T00:54:59.417Z,1003.31
2018-09-05T00:55:59.365Z,1003.32
2018-09-05T00:58:32.475Z,1003.32
2018-09-05T00:59:32.421Z,1003.28
2018-09-05T01:00:32.406Z,1003.31
2018-09-05T01:01:32.408Z,1003.31
2018-09-05T01:02:32.376Z,1003.29
2018-09-05T01:03:32.358Z,1003.28
2018-09-05T01:04:32.334Z,1003.25
2018-09-05T01:05:32.323Z,1003.25
2018-09-05T01:06:32.301Z,1003.21
2018-09-05T01:07:32.284Z,1003.24
2018-09-05T01:08:32.268Z,1003.22
2018-09-05T01:09:32.250Z,1003.22
2018-09-05T01:10:32.271Z,1003.21
2018-09-05T01:11:32.219Z,1003.19
2018-09-05T01:12:32.214Z,1003.20
2018-09-05T01:13:32.181Z,1003.22
2018-09-05T01:14:32.170Z,1003.24
2018-09-05T01:15:32.153Z,1003.18
2018-09-05T01:16:32.176Z,1003.21
2018-09-05T01:17:32.120Z,1003.20
2018-09-05T01:18:32.100Z,1003.19
2018-09-05T01:19:32.088Z,1003.17
2018-09-05T01:20:32.075Z,1003.21
2018-09-05T01:21:32.045Z,1003.15
2018-09-05T01:22:32.031Z,1003.15
2018-09-05T01:23:32.029Z,1003.18
2018-09-05T01:24:31.995Z,1003.20
2018-09-05T01:25:31.978Z,1003.18
2018-09-05T01:26:31.963Z,1003.22
2018-09-05T01:27:31.945Z,1003.19
2018-09-05T01:28:31.927Z,1003.22
2018-09-05T01:29:31.912Z,1003.18
2018-09-05T01:30:31.894Z,1003.20
2018-09-05T01:31:31.884Z,1003.18
2018-09-05T01:32:31.865Z,1003.18
2018-09-05T01:33:31.843Z,1003.16
2018-09-05T01:34:31.825Z,1003.20
2018-09-05T01:35:31.804Z,1003.18
2018-09-05T01:36:31.791Z,1003.19
2018-09-05T01:37:31.778Z,1003.19
2018-09-05T01:38:31.758Z,1003.22
2018-09-05T01:39:31.770Z,1003.22
2018-09-05T01:40:31.720Z,1003.24
2018-09-05T01:41:31.702Z,1003.26
2018-09-05T01:42:31.687Z,1003.27
2018-09-05T01:43:31.692Z,1003.28
2018-09-05T01:44:31.656Z,1003.27
2018-09-05T01:45:31.636Z,1003.30
2018-09-05T01:46:31.627Z,1003.29
2018-09-05T01:47:31.643Z,1003.30
2018-09-05T01:48:31.585Z,1003.28
2018-09-05T01:49:31.577Z,1003.32
2018-09-05T01:50:31.552Z,1003.31
2018-09-05T01:51:31.542Z,1003.27
2018-09-05T01:52:31.516Z,1003.29
2018-09-05T01:53:31.499Z,1003.29
2018-09-05T01:54:31.483Z,1003.25
2018-09-05T01:55:31.492Z,1003.24
2018-09-05T01:56:31.450Z,1003.20
2018-09-05T01:57:31.434Z,1003.22
2018-09-05T01:58:31.421Z,1003.19
2018-09-05T01:59:39.176Z,1003.20
2018-09-05T02:00:31.392Z,1003.16
2018-09-05T02:01:31.368Z,1003.15
2018-09-05T02:03:54.396Z,1003.16
2018-09-05T02:04:54.382Z,1003.17
2018-09-05T02:05:54.340Z,1003.15
2018-09-05T02:06:54.327Z,1003.17
2018-09-05T02:07:54.301Z,1003.16
2018-09-05T02:08:54.290Z,1003.13
2018-09-05T02:09:54.269Z,1003.11
2018-09-05T02:10:54.250Z,1003.14
2018-09-05T02:11:54.231Z,1003.12
2018-09-05T02:12:54.216Z,1003.12
2018-09-05T02:13:54.212Z,1003.10
2018-09-05T02:14:54.192Z,1003.12
2018-09-05T02:15:54.175Z,1003.17
2018-09-05T02:16:54.185Z,1003.18
2018-09-05T02:17:54.134Z,1003.18
2018-09-05T02:18:54.117Z,1003.17
2018-09-05T02:19:54.094Z,1003.18
2018-09-05T02:20:54.089Z,1003.17
2018-09-05T02:21:54.124Z,1003.15
2018-09-05T02:22:54.046Z,1003.18
2018-09-05T02:23:54.050Z,1003.17
2018-09-05T02:24:54.008Z,1003.18
2018-09-05T02:25:53.988Z,1003.16
2018-09-05T02:26:53.987Z,1003.16
2018-09-05T02:27:53.959Z,1003.15
2018-09-05T02:28:53.942Z,1003.18
2018-09-05T02:29:53.935Z,1003.13
2018-09-05T02:30:53.919Z,1003.13
2018-09-05T02:31:53.892Z,1003.14
2018-09-05T02:32:53.872Z,1003.16
2018-09-05T02:33:53.855Z,1003.18
2018-09-05T02:34:53.842Z,1003.15
2018-09-05T02:35:53.822Z,1003.16
2018-09-05T02:36:53.829Z,1003.14
2018-09-05T02:37:53.801Z,1003.15
2018-09-05T02:38:53.768Z,1003.16
2018-09-05T02:39:53.759Z,1003.16
2018-09-05T02:40:53.791Z,1003.16
2018-09-05T02:41:53.751Z,1003.15
2018-09-05T02:42:53.709Z,1003.13
2018-09-05T02:43:53.683Z,1003.17
2018-09-05T02:44:53.668Z,1003.15
2018-09-05T02:45:53.654Z,1003.13
2018-09-05T02:46:53.675Z,1003.14
2018-09-05T02:47:53.616Z,1003.10
2018-09-05T02:48:53.605Z,1003.09
2018-09-05T02:49:53.580Z,1003.12
2018-09-05T02:50:53.589Z,1003.13
2018-09-05T02:51:53.584Z,1003.12
2018-09-05T02:52:53.526Z,1003.11
2018-09-05T02:53:53.511Z,1003.11
2018-09-05T02:54:53.499Z,1003.10
2018-09-05T02:55:53.482Z,1003.10
2018-09-05T02:56:53.458Z,1003.10
2018-09-05T02:57:53.444Z,1003.12
2018-09-05T02:58:53.428Z,1003.13
2018-09-05T02:59:53.409Z,1003.14
2018-09-05T03:00:53.393Z,1003.13
2018-09-05T03:01:53.372Z,1003.16
2018-09-05T03:04:16.404Z,1003.14
2018-09-05T03:05:16.363Z,1003.08
2018-09-05T03:06:16.346Z,1003.10
2018-09-05T03:07:16.328Z,1003.07
2018-09-05T03:08:16.314Z,1003.09
2018-09-05T03:09:16.334Z,1003.07
2018-09-05T03:10:16.278Z,1003.07
2018-09-05T03:11:16.258Z,1003.10
2018-09-05T03:12:16.242Z,1003.04
2018-09-05T03:13:16.225Z,1003.05
2018-09-05T03:14:16.207Z,1003.06
2018-09-05T03:15:16.191Z,1003.05
2018-09-05T03:16:16.176Z,1003.06
2018-09-05T03:18:39.201Z,1003.07
2018-09-05T03:19:39.157Z,1003.05
2018-09-05T03:20:39.148Z,1003.07
2018-09-05T03:21:39.125Z,1003.10
2018-09-05T03:22:39.101Z,1003.03
2018-09-05T03:23:39.208Z,1003.06
2018-09-05T03:24:39.066Z,1003.03
2018-09-05T03:25:39.050Z,1003.05
2018-09-05T03:26:39.033Z,1003.09
2018-09-05T03:27:39.017Z,1003.09
2018-09-05T03:28:38.995Z,1003.12
2018-09-05T03:29:38.999Z,1003.12
2018-09-05T03:30:38.983Z,1003.11
2018-09-05T03:31:38.951Z,1003.09
2018-09-05T03:32:39.028Z,1003.12
2018-09-05T03:33:38.913Z,1003.11
2018-09-05T03:34:38.895Z,1003.12
2018-09-05T03:35:38.879Z,1003.09
2018-09-05T03:36:38.864Z,1003.12
2018-09-05T03:37:38.879Z,1003.09
2018-09-05T03:38:38.833Z,1003.13
2018-09-05T03:39:38.812Z,1003.09
2018-09-05T03:40:38.792Z,1003.08
2018-09-05T03:41:38.788Z,1003.10
2018-09-05T03:42:38.765Z,1003.06
2018-09-05T03:43:38.739Z,1003.11
2018-09-05T03:46:01.780Z,1003.07
2018-09-05T03:47:01.743Z,1003.11
2018-09-05T03:48:01.726Z,1003.12
2018-09-05T03:49:01.714Z,1003.11
2018-09-05T03:50:01.693Z,1003.16
2018-09-05T03:51:01.676Z,1003.16
2018-09-05T03:52:01.655Z,1003.17
2018-09-05T03:53:01.697Z,1003.21
2018-09-05T03:54:01.653Z,1003.16
2018-09-05T03:55:01.608Z,1003.17
2018-09-05T03:56:01.596Z,1003.17
2018-09-05T03:57:01.588Z,1003.20
2018-09-05T03:58:01.577Z,1003.21
2018-09-05T03:59:01.538Z,1003.19
2018-09-05T04:00:01.528Z,1003.19
2018-09-05T04:01:01.533Z,1003.20
2018-09-05T04:02:01.494Z,1003.21
2018-09-05T04:03:01.471Z,1003.22
2018-09-05T04:04:01.453Z,1003.21
2018-09-05T04:05:01.478Z,1003.22
2018-09-05T04:06:01.432Z,1003.22
2018-09-05T04:07:01.413Z,1003.21
2018-09-05T04:08:01.383Z,1003.23
2018-09-05T04:09:01.379Z,1003.21
2018-09-05T04:10:01.357Z,1003.21
2018-09-05T04:11:01.338Z,1003.20
2018-09-05T04:12:01.349Z,1003.22
2018-09-05T04:13:01.299Z,1003.18
2018-09-05T04:14:01.290Z,1003.19
2018-09-05T04:15:01.308Z,1003.18
2018-09-05T04:16:01.254Z,1003.16
2018-09-05T04:17:01.237Z,1003.21
2018-09-05T04:18:01.217Z,1003.20
2018-09-05T04:19:01.205Z,1003.18
2018-09-05T04:20:01.189Z,1003.13
2018-09-05T04:21:01.163Z,1003.17
2018-09-05T04:22:01.186Z,1003.18
2018-09-05T04:23:01.133Z,1003.19
2018-09-05T04:24:01.121Z,1003.19
2018-09-05T04:25:01.102Z,1003.14
2018-09-05T04:26:01.081Z,1003.16
2018-09-05T04:27:01.079Z,1003.18
2018-09-05T04:28:01.075Z,1003.18
2018-09-05T04:29:01.036Z,1003.16
2018-09-05T04:30:01.102Z,1003.13
2018-09-05T04:31:01.017Z,1003.15
2018-09-05T04:32:00.982Z,1003.15
2018-09-05T04:33:00.961Z,1003.19
2018-09-05T04:34:00.943Z,1003.16
2018-09-05T04:35:00.928Z,1003.18
2018-09-05T04:36:00.921Z,1003.15
2018-09-05T04:37:00.890Z,1003.20
2018-09-05T04:38:00.876Z,1003.19
2018-09-05T04:39:00.862Z,1003.19
2018-09-05T04:40:00.844Z,1003.17
2018-09-05T04:41:00.828Z,1003.20
2018-09-05T04:42:00.846Z,1003.24
2018-09-05T04:43:00.817Z,1003.19
2018-09-05T04:44:00.782Z,1003.23
2018-09-05T04:45:00.781Z,1003.21
2018-09-05T04:46:00.814Z,1003.24
2018-09-05T04:47:00.738Z,1003.21
2018-09-05T04:48:00.706Z,1003.22
2018-09-05T04:49:00.687Z,1003.21
2018-09-05T04:50:00.675Z,1003.22
2018-09-05T04:51:00.650Z,1003.26
2018-09-05T04:52:00.636Z,1003.26
2018-09-05T04:53:00.623Z,1003.25
2018-09-05T04:54:00.605Z,1003.26
2018-09-05T04:55:00.590Z,1003.28
2018-09-05T04:56:00.568Z,1003.26
2018-09-05T04:57:00.552Z,1003.25
2018-09-05T04:58:00.566Z,1003.21
2018-09-05T04:59:00.539Z,1003.25
2018-09-05T05:00:00.506Z,1003.23
2018-09-05T05:01:00.488Z,1003.20
2018-09-05T05:02:00.467Z,1003.22
2018-09-05T05:03:00.451Z,1003.21
2018-09-05T05:04:00.432Z,1003.22
2018-09-05T05:05:00.415Z,1003.25
2018-09-05T05:06:00.398Z,1003.24
2018-09-05T05:07:00.402Z,1003.25
2018-09-05T05:08:00.362Z,1003.25
2018-09-05T05:09:00.369Z,1003.25
2018-09-05T05:10:00.340Z,1003.27
2018-09-05T05:11:00.313Z,1003.26
2018-09-05T05:12:00.296Z,1003.27
2018-09-05T05:13:00.278Z,1003.29
2018-09-05T05:14:00.279Z,1003.26
2018-09-05T05:15:00.266Z,1003.31
2018-09-05T05:16:00.233Z,1003.32
2018-09-05T05:17:00.210Z,1003.35
2018-09-05T05:18:00.191Z,1003.36
2018-09-05T05:19:00.174Z,1003.36
2018-09-05T05:20:00.160Z,1003.37
2018-09-05T05:21:00.140Z,1003.37
2018-09-05T05:22:00.121Z,1003.38
2018-09-05T05:23:00.110Z,1003.37
2018-09-05T05:24:00.088Z,1003.36
2018-09-05T05:25:00.072Z,1003.39
2018-09-05T05:26:00.060Z,1003.39
2018-09-05T05:27:00.037Z,1003.40
2018-09-05T05:28:00.021Z,1003.41
2018-09-05T05:29:00.006Z,1003.44
2018-09-05T05:29:59.997Z,1003.40
2018-09-05T05:30:59.977Z,1003.43
2018-09-05T05:31:59.988Z,1003.43
2018-09-05T05:32:59.980Z,1003.42
2018-09-05T05:33:59.923Z,1003.41
2018-09-05T05:34:59.904Z,1003.43
2018-09-05T05:35:59.935Z,1003.40
2018-09-05T05:36:59.937Z,1003.41
2018-09-05T05:37:59.853Z,1003.46
2018-09-05T05:38:59.837Z,1003.43
2018-09-05T05:39:59.824Z,1003.48
2018-09-05T05:40:59.804Z,1003.47
2018-09-05T05:41:59.826Z,1003.49
2018-09-05T05:42:59.806Z,1003.50
2018-09-05T05:43:59.784Z,1003.52
2018-09-05T05:44:59.741Z,1003.50
2018-09-05T05:45:59.723Z,1003.52
2018-09-05T05:46:59.708Z,1003.53
2018-09-05T05:47:59.697Z,1003.55
2018-09-05T05:48:59.681Z,1003.52
2018-09-05T05:49:59.661Z,1003.56
2018-09-05T05:50:59.669Z,1003.56
2018-09-05T05:51:59.622Z,1003.55
2018-09-05T05:52:59.604Z,1003.56
2018-09-05T05:53:59.597Z,1003.60
2018-09-05T05:54:59.598Z,1003.60
2018-09-05T05:55:59.556Z,1003.60
2018-09-05T05:56:59.544Z,1003.61
2018-09-05T05:57:59.523Z,1003.63
2018-09-05T05:58:59.512Z,1003.63
2018-09-05T05:59:59.495Z,1003.60
2018-09-05T06:00:59.581Z,1003.65
2018-09-05T06:01:59.460Z,1003.66
2018-09-05T06:02:59.442Z,1003.65
2018-09-05T06:03:59.562Z,1003.61
2018-09-05T06:04:59.414Z,1003.66
2018-09-05T06:05:59.466Z,1003.63
2018-09-05T06:06:59.376Z,1003.62
2018-09-05T06:07:59.363Z,1003.69
2018-09-05T06:08:59.342Z,1003.63
2018-09-05T06:09:59.333Z,1003.65
2018-09-05T06:10:59.312Z,1003.62
2018-09-05T06:11:59.302Z,1003.64
2018-09-05T06:12:59.278Z,1003.66
2018-09-05T06:13:59.268Z,1003.65
2018-09-05T06:14:59.247Z,1003.65
2018-09-05T06:15:59.230Z,1003.61
2018-09-05T06:16:59.219Z,1003.66
2018-09-05T06:17:59.243Z,1003.65
2018-09-05T06:18:59.186Z,1003.63
2018-09-05T06:19:59.174Z,1003.66
2018-09-05T06:20:59.158Z,1003.68
2018-09-05T06:21:59.135Z,1003.69
2018-09-05T06:22:59.122Z,1003.69
2018-09-05T06:23:59.118Z,1003.72
2018-09-05T06:24:59.100Z,1003.74
2018-09-05T06:25:59.073Z,1003.76
2018-09-05T06:26:59.064Z,1003.73
2018-09-05T06:27:59.043Z,1003.71
2018-09-05T06:28:59.028Z,1003.73
2018-09-05T06:29:59.012Z,1003.73
2018-09-05T06:30:59.036Z,1003.73
2018-09-05T06:31:58.994Z,1003.68
2018-09-05T06:32:59.052Z,1003.70
2018-09-05T06:33:58.970Z,1003.71
2018-09-05T06:34:58.942Z,1003.71
2018-09-05T06:35:58.982Z,1003.69
2018-09-05T06:36:58.910Z,1003.70
2018-09-05T06:37:58.894Z,1003.70
2018-09-05T06:38:58.941Z,1003.76
2018-09-05T06:39:58.876Z,1003.77
2018-09-05T06:40:58.850Z,1003.78
2018-09-05T06:41:58.836Z,1003.79
2018-09-05T06:42:58.817Z,1003.80
2018-09-05T06:43:58.825Z,1003.78
2018-09-05T06:44:58.797Z,1003.78
2018-09-05T06:45:58.772Z,1003.75
2018-09-05T06:46:58.761Z,1003.72
2018-09-05T06:47:58.744Z,1003.71
2018-09-05T06:48:58.728Z,1003.70
2018-09-05T06:49:58.712Z,1003.73
2018-09-05T06:50:58.703Z,1003.73
2018-09-05T06:51:58.690Z,1003.73
2018-09-05T06:52:58.671Z,1003.76
2018-09-05T06:53:58.656Z,1003.75
2018-09-05T06:54:58.644Z,1003.72
2018-09-05T06:55:58.630Z,1003.78
2018-09-05T06:56:58.614Z,1003.79
2018-09-05T06:57:58.596Z,1003.79
2018-09-05T06:58:58.580Z,1003.82
2018-09-05T06:59:58.573Z,1003.84
2018-09-05T07:00:58.549Z,1003.80
2018-09-05T07:01:58.541Z,1003.86
2018-09-05T07:02:58.525Z,1003.85
2018-09-05T07:03:58.552Z,1003.87
2018-09-05T07:04:58.498Z,1003.85
2018-09-05T07:05:58.475Z,1003.84
2018-09-05T07:06:58.503Z,1003.86
2018-09-05T07:07:58.459Z,1003.85
2018-09-05T07:08:58.439Z,1003.84
2018-09-05T07:09:58.485Z,1003.86
2018-09-05T07:10:58.410Z,1003.88
2018-09-05T07:11:58.390Z,1003.93
2018-09-05T07:12:58.380Z,1003.90
2018-09-05T07:13:58.372Z,1003.87
2018-09-05T07:14:58.352Z,1003.92
2018-09-05T07:15:58.335Z,1003.91
2018-09-05T07:16:58.330Z,1003.89
2018-09-05T07:17:58.306Z,1003.90
2018-09-05T07:18:58.297Z,1003.93
2018-09-05T07:19:58.295Z,1003.87
2018-09-05T07:21:05.680Z,1003.93
2018-09-05T07:21:58.288Z,1003.90
2018-09-05T07:22:58.242Z,1003.89
2018-09-05T07:23:58.223Z,1003.90
2018-09-05T07:24:58.284Z,1003.92
2018-09-05T07:25:58.203Z,1003.96
2018-09-05T07:26:58.190Z,1003.90
2018-09-05T07:27:58.178Z,1003.93
2018-09-05T07:28:58.163Z,1003.94
2018-09-05T07:29:58.151Z,1003.94
2018-09-05T07:30:58.228Z,1003.95
2018-09-05T07:31:58.129Z,1003.90
2018-09-05T07:32:58.110Z,1003.93
2018-09-05T07:33:58.102Z,1003.92
2018-09-05T07:34:58.086Z,1003.91
2018-09-05T07:35:58.073Z,1003.94
2018-09-05T07:36:58.058Z,1003.95
2018-09-05T07:37:58.046Z,1003.96
2018-09-05T07:38:58.035Z,1003.94
2018-09-05T07:39:58.020Z,1003.93
2018-09-05T07:40:58.010Z,1003.93
2018-09-05T07:41:57.996Z,1003.97
2018-09-05T07:42:57.997Z,1003.96
2018-09-05T07:43:57.973Z,1003.96
2018-09-05T07:44:57.964Z,1004.02
2018-09-05T07:45:57.942Z,1004.03
2018-09-05T07:46:57.965Z,1003.97
2018-09-05T07:47:57.923Z,1003.96
2018-09-05T07:48:57.905Z,1003.98
2018-09-05T07:49:57.896Z,1003.95
2018-09-05T07:50:57.927Z,1003.96
2018-09-05T07:51:57.870Z,1003.94
2018-09-05T07:52:57.864Z,1003.96
2018-09-05T07:53:57.867Z,1003.97
2018-09-05T07:54:57.834Z,1003.95
2018-09-05T07:55:57.822Z,1003.96
2018-09-05T07:56:57.807Z,1003.97
2018-09-05T07:57:57.800Z,1003.97
2018-09-05T07:58:57.787Z,1003.97
2018-09-05T07:59:57.779Z,1003.99
2018-09-05T08:00:57.761Z,1003.96
2018-09-05T08:01:57.752Z,1003.96
2018-09-05T08:02:57.761Z,1004.00
2018-09-05T08:03:57.736Z,1004.00
2018-09-05T08:04:57.723Z,1003.97
2018-09-05T08:05:57.700Z,1004.01
2018-09-05T08:06:57.692Z,1004.01
2018-09-05T08:07:57.679Z,1004.04
2018-09-05T08:08:57.667Z,1004.04
2018-09-05T08:09:57.657Z,1004.01
2018-09-05T08:10:57.654Z,1003.98
2018-09-05T08:11:57.631Z,1003.98
2018-09-05T08:12:57.620Z,1003.97
2018-09-05T08:13:57.608Z,1004.00
2018-09-05T08:14:57.597Z,1003.97
2018-09-05T08:15:57.606Z,1003.98
2018-09-05T08:16:57.571Z,1003.98
2018-09-05T08:17:57.578Z,1003.96
2018-09-05T08:18:57.549Z,1003.98
2018-09-05T08:19:57.543Z,1003.94
2018-09-05T08:20:57.530Z,1003.92
2018-09-05T08:21:57.519Z,1003.93
2018-09-05T08:22:57.513Z,1003.92
2018-09-05T08:23:57.495Z,1003.92
2018-09-05T08:24:57.486Z,1003.93
2018-09-05T08:25:57.481Z,1003.90
2018-09-05T08:26:57.460Z,1003.87
2018-09-05T08:27:57.456Z,1003.89
2018-09-05T08:28:57.491Z,1003.91
2018-09-05T08:29:57.431Z,1003.85
2018-09-05T08:30:57.420Z,1003.87
2018-09-05T08:31:57.409Z,1003.86
2018-09-05T08:32:57.398Z,1003.87
2018-09-05T08:33:57.389Z,1003.84
2018-09-05T08:34:57.509Z,1003.88
2018-09-05T08:35:57.605Z,1003.88
2018-09-05T08:36:57.594Z,1003.86
2018-09-05T08:37:57.382Z,1003.87
2018-09-05T08:38:57.413Z,1003.87
2018-09-05T08:39:57.328Z,1003.88
2018-09-05T08:40:57.334Z,1003.86
2018-09-05T08:41:57.312Z,1003.88
2018-09-05T08:42:57.299Z,1003.88
2018-09-05T08:43:57.353Z,1003.89
2018-09-05T08:44:57.441Z,1003.89
2018-09-05T08:45:57.312Z,1003.87
2018-09-05T08:46:57.310Z,1003.86
2018-09-05T08:47:57.305Z,1003.87
2018-09-05T08:48:57.221Z,1003.88
2018-09-05T08:49:57.223Z,1003.88
2018-09-05T08:50:57.205Z,1003.84
2018-09-05T08:51:57.215Z,1003.87
2018-09-05T08:52:57.224Z,1003.89
2018-09-05T08:53:57.174Z,1003.88
2018-09-05T08:54:57.155Z,1003.86
2018-09-05T08:55:57.148Z,1003.87
2018-09-05T08:56:57.143Z,1003.85
2018-09-05T08:57:57.128Z,1003.89
2018-09-05T08:58:57.216Z,1003.86
2018-09-05T08:59:57.107Z,1003.87
2018-09-05T09:00:57.093Z,1003.86
2018-09-05T09:01:57.088Z,1003.88
2018-09-05T09:02:57.138Z,1003.86
2018-09-05T09:03:57.060Z,1003.88
2018-09-05T09:04:57.073Z,1003.82
2018-09-05T09:05:57.043Z,1003.86
2018-09-05T09:06:57.036Z,1003.85
2018-09-05T09:07:57.025Z,1003.83
2018-09-05T09:08:57.010Z,1003.85
2018-09-05T09:09:57.002Z,1003.82
2018-09-05T09:10:56.991Z,1003.87
2018-09-05T09:11:56.984Z,1003.90
2018-09-05T09:12:56.973Z,1003.88
2018-09-05T09:13:56.956Z,1003.87
2018-09-05T09:14:56.945Z,1003.92
2018-09-05T09:15:56.940Z,1003.93
2018-09-05T09:16:56.934Z,1003.89
2018-09-05T09:17:56.919Z,1003.92
2018-09-05T09:18:56.907Z,1003.90
2018-09-05T09:19:56.896Z,1003.90
2018-09-05T09:20:56.885Z,1003.94
2018-09-05T09:21:56.876Z,1003.90
2018-09-05T09:22:56.871Z,1003.91
2018-09-05T09:23:56.858Z,1003.89
2018-09-05T09:24:56.861Z,1003.90
2018-09-05T09:25:56.833Z,1003.86
2018-09-05T09:26:56.825Z,1003.88
2018-09-05T09:27:56.816Z,1003.89
2018-09-05T09:28:56.812Z,1003.87
2018-09-05T09:29:56.792Z,1003.90
2018-09-05T09:30:56.781Z,1003.91
2018-09-05T09:31:56.775Z,1003.93
2018-09-05T09:32:56.761Z,1003.88
2018-09-05T09:33:56.755Z,1003.89
2018-09-05T09:34:56.755Z,1003.87
2018-09-05T09:35:56.736Z,1003.89
2018-09-05T09:36:56.728Z,1003.88
2018-09-05T09:37:56.730Z,1003.87
2018-09-05T09:38:56.699Z,1003.90
2018-09-05T09:39:56.693Z,1003.89
2018-09-05T09:40:56.685Z,1003.88
2018-09-05T09:41:56.674Z,1003.90
2018-09-05T09:42:56.666Z,1003.90
2018-09-05T09:43:56.654Z,1003.89
2018-09-05T09:44:56.642Z,1003.91
2018-09-05T09:45:56.631Z,1003.88
2018-09-05T09:46:56.623Z,1003.87
2018-09-05T09:47:56.614Z,1003.87
2018-09-05T09:48:56.605Z,1003.87
2018-09-05T09:49:56.596Z,1003.86
2018-09-05T09:50:56.583Z,1003.84
2018-09-05T09:51:56.577Z,1003.84
2018-09-05T09:52:56.568Z,1003.86
2018-09-05T09:53:56.560Z,1003.82
2018-09-05T09:54:56.543Z,1003.82
2018-09-05T09:55:56.539Z,1003.81
2018-09-05T09:56:56.530Z,1003.80
2018-09-05T09:57:56.544Z,1003.77
2018-09-05T09:58:56.510Z,1003.76
2018-09-05T09:59:56.499Z,1003.77
2018-09-05T10:00:56.488Z,1003.74
2018-09-05T10:01:56.483Z,1003.78
2018-09-05T10:02:56.475Z,1003.75
2018-09-05T10:03:56.474Z,1003.70
2018-09-05T10:04:56.450Z,1003.73
2018-09-05T10:05:56.442Z,1003.73
2018-09-05T10:06:56.485Z,1003.68
2018-09-05T10:07:56.427Z,1003.71
2018-09-05T10:08:56.418Z,1003.71
2018-09-05T10:09:56.580Z,1003.70
2018-09-05T10:10:56.393Z,1003.70
2018-09-05T10:11:56.387Z,1003.70
2018-09-05T10:12:56.379Z,1003.66
2018-09-05T10:13:56.370Z,1003.69
2018-09-05T10:14:56.391Z,1003.67
2018-09-05T10:15:56.353Z,1003.66
2018-09-05T10:16:56.377Z,1003.62
2018-09-05T10:17:56.329Z,1003.63
2018-09-05T10:18:56.322Z,1003.62
2018-09-05T10:19:56.313Z,1003.63
2018-09-05T10:20:56.312Z,1003.63
2018-09-05T10:21:56.296Z,1003.63
2018-09-05T10:22:56.303Z,1003.61
2018-09-05T10:23:56.276Z,1003.62
2018-09-05T10:24:56.270Z,1003.59
2018-09-05T10:25:56.256Z,1003.61
2018-09-05T10:26:56.245Z,1003.54
2018-09-05T10:27:56.238Z,1003.56
2018-09-05T10:28:56.229Z,1003.53
2018-09-05T10:29:56.229Z,1003.52
2018-09-05T10:30:56.212Z,1003.52
2018-09-05T10:31:56.201Z,1003.50
2018-09-05T10:32:56.194Z,1003.47
2018-09-05T10:33:56.183Z,1003.46
2018-09-05T10:34:56.172Z,1003.47
2018-09-05T10:35:56.160Z,1003.45
2018-09-05T10:36:56.155Z,1003.46
2018-09-05T10:37:56.146Z,1003.46
2018-09-05T10:38:56.136Z,1003.47
2018-09-05T10:39:56.124Z,1003.41
2018-09-05T10:40:56.117Z,1003.46
2018-09-05T10:41:56.104Z,1003.45
2018-09-05T10:42:56.095Z,1003.44
2018-09-05T10:43:56.084Z,1003.42
2018-09-05T10:44:56.078Z,1003.44
2018-09-05T10:45:56.068Z,1003.45
2018-09-05T10:46:56.062Z,1003.41
2018-09-05T10:47:56.049Z,1003.38
2018-09-05T10:48:56.039Z,1003.42
2018-09-05T10:49:56.031Z,1003.41
2018-09-05T10:50:56.019Z,1003.39
2018-09-05T10:51:56.008Z,1003.41
2018-09-05T10:52:56.000Z,1003.40
2018-09-05T10:53:55.991Z,1003.40
2018-09-05T10:56:28.119Z,1003.39
2018-09-05T10:57:28.090Z,1003.36
2018-09-05T10:59:22.472Z,1003.41
2018-09-05T11:00:22.456Z,1003.36
2018-09-05T11:01:22.449Z,1003.32
2018-09-05T11:02:22.443Z,1003.37
2018-09-05T11:03:22.429Z,1003.33
2018-09-05T11:04:22.536Z,1003.34
2018-09-05T11:05:22.413Z,1003.35
2018-09-05T11:06:22.409Z,1003.36
2018-09-05T11:07:22.414Z,1003.32
2018-09-05T11:08:22.385Z,1003.31
2018-09-05T11:09:22.376Z,1003.28
2018-09-05T11:10:22.418Z,1003.23
2018-09-05T11:11:22.355Z,1003.27
2018-09-05T11:12:22.343Z,1003.26
2018-09-05T11:13:22.341Z,1003.24
2018-09-05T11:14:22.328Z,1003.24
2018-09-05T11:15:22.321Z,1003.26
2018-09-05T11:16:22.310Z,1003.23
2018-09-05T11:17:22.303Z,1003.23
2018-09-05T11:18:22.300Z,1003.24
2018-09-05T11:19:22.282Z,1003.20
2018-09-05T11:20:22.275Z,1003.17
2018-09-05T11:21:22.341Z,1003.19
2018-09-05T11:22:22.253Z,1003.17
2018-09-05T11:23:22.244Z,1003.13
2018-09-05T11:24:22.234Z,1003.14
2018-09-05T11:25:22.225Z,1003.14
2018-09-05T11:26:22.218Z,1003.14
2018-09-05T11:27:22.206Z,1003.16
2018-09-05T11:28:22.197Z,1003.11
2018-09-05T11:29:22.189Z,1003.16
2018-09-05T11:30:22.179Z,1003.16
2018-09-05T11:31:22.192Z,1003.19
2018-09-05T11:32:22.166Z,1003.16
2018-09-05T11:33:22.151Z,1003.19
2018-09-05T11:34:22.147Z,1003.20
2018-09-05T11:35:22.130Z,1003.21
2018-09-05T11:36:22.128Z,1003.20
2018-09-05T11:37:22.112Z,1003.20
2018-09-05T11:38:22.158Z,1003.16
2018-09-05T11:40:55.239Z,1003.10
2018-09-05T11:41:55.189Z,1003.11
2018-09-05T11:42:55.181Z,1003.12
2018-09-05T11:43:55.169Z,1003.11
2018-09-05T11:44:55.173Z,1003.03
2018-09-05T11:45:55.181Z,1003.03
2018-09-05T11:46:55.168Z,1003.06
2018-09-05T11:47:55.219Z,1003.08
2018-09-05T11:48:55.139Z,1003.06
2018-09-05T11:49:55.119Z,1003.06
2018-09-05T11:50:55.110Z,1003.03
2018-09-05T11:51:55.097Z,1003.07
2018-09-05T11:52:55.092Z,1003.08
2018-09-05T11:53:55.086Z,1003.08
2018-09-05T11:54:55.081Z,1003.04
2018-09-05T11:55:55.118Z,1003.04
2018-09-05T11:56:55.060Z,1003.04
2018-09-05T11:57:55.052Z,1003.00
2018-09-05T11:58:55.106Z,1003.04
2018-09-05T11:59:55.083Z,1003.02
2018-09-05T12:00:55.027Z,1003.06
2018-09-05T12:01:55.019Z,1003.05
2018-09-05T12:02:55.008Z,1003.08
2018-09-05T12:03:55.003Z,1003.05
2018-09-05T12:04:55.102Z,1003.01
2018-09-05T12:05:54.983Z,1003.09
2018-09-05T12:06:54.974Z,1003.04
2018-09-05T12:07:54.966Z,1003.03
2018-09-05T12:08:54.964Z,1002.99
2018-09-05T12:09:54.970Z,1003.03
2018-09-05T12:10:54.949Z,1003.06
2018-09-05T12:11:54.936Z,1003.01
2018-09-05T12:12:54.926Z,1003.04
2018-09-05T12:13:55.009Z,1003.04
2018-09-05T12:14:54.937Z,1003.04
2018-09-05T12:15:54.907Z,1003.07